Time;durP1;ratioP1;P1;durP2;ratioP2;P2;SDS_P1;SDS_P2;PMS_P1;PMS_P2;Temp;Humidity;BMP_temperature;BMP_pressure;BME280_temperature;BME280_humidity;BME280_pressure;Samples;Min_cycle;Max_cycle;Signal;HPM_P1;HPM_P2
2024/01/28 00:00:54;;;;;;;9.90;3.10;;;;;;;4.32;100.00;101846.25;5034487;28;20505;-43
2024/01/28 00:03:23;;;;;;;11.45;3.05;;;;;;;4.32;100.00;101846.25;5034105;28;20186;-43
2024/01/28 00:05:52;;;;;;;12.07;3.30;;;;;;;4.41;100.00;101849.72;5034371;28;20219;-43
2024/01/28 00:08:20;;;;;;;10.43;3.08;;;;;;;4.33;100.00;101841.84;5034096;28;20544;-43
2024/01/28 00:10:50;;;;;;;10.98;3.38;;;;;;;4.31;100.00;101851.56;5034154;28;20052;-43
2024/01/28 00:13:20;;;;;;;7.22;3.22;;;;;;;4.35;100.00;101840.09;5034026;28;20056;-42
2024/01/28 00:15:49;;;;;;;9.48;3.05;;;;;;;4.41;100.00;101850.59;5034033;28;20053;-44
2024/01/28 00:18:18;;;;;;;9.77;3.65;;;;;;;4.34;100.00;101848.00;5033990;28;20461;-44
2024/01/28 00:20:46;;;;;;;11.05;3.78;;;;;;;4.34;100.00;101848.88;5033673;28;20048;-44
2024/01/28 00:23:15;;;;;;;13.43;3.55;;;;;;;4.31;100.00;101852.44;5033759;28;20077;-46
2024/01/28 00:25:43;;;;;;;7.75;2.92;;;;;;;4.42;100.00;101856.75;5033537;28;20049;-43
2024/01/28 00:28:13;;;;;;;8.95;3.03;;;;;;;4.46;100.00;101859.38;5033820;28;20042;-42
2024/01/28 00:30:42;;;;;;;8.07;3.40;;;;;;;4.44;100.00;101865.53;5033589;28;20046;-43
2024/01/28 00:33:10;;;;;;;14.52;3.35;;;;;;;4.34;100.00;101864.75;5033760;28;20042;-43
2024/01/28 00:35:39;;;;;;;6.72;3.17;;;;;;;4.41;100.00;101861.16;5033339;28;20080;-44
2024/01/28 00:38:07;;;;;;;8.75;3.20;;;;;;;4.34;100.00;101874.44;5033357;28;20188;-43
2024/01/28 00:40:35;;;;;;;7.72;3.35;;;;;;;4.22;100.00;101870.13;5033782;28;20136;-43
2024/01/28 00:43:04;;;;;;;10.40;3.10;;;;;;;4.12;100.00;101857.91;5033462;28;20058;-43
2024/01/28 00:45:34;;;;;;;10.07;3.33;;;;;;;4.14;100.00;101867.56;5033380;28;20051;-44
2024/01/28 00:48:03;;;;;;;12.02;3.13;;;;;;;4.15;100.00;101869.34;5033289;28;20514;-44
2024/01/28 00:50:31;;;;;;;9.38;3.00;;;;;;;4.24;100.00;101873.63;5033164;28;20045;-43
2024/01/28 00:53:00;;;;;;;9.93;3.03;;;;;;;4.20;100.00;101885.13;5033206;28;20067;-42
2024/01/28 00:55:28;;;;;;;9.27;3.53;;;;;;;4.18;100.00;101879.88;5033491;28;20140;-41
2024/01/28 00:57:57;;;;;;;12.85;3.15;;;;;;;4.23;100.00;101874.53;5033294;28;20125;-44
2024/01/28 01:00:26;;;;;;;8.50;2.75;;;;;;;4.22;100.00;101885.97;5033147;28;20055;-42
2024/01/28 01:02:55;;;;;;;7.72;3.20;;;;;;;4.22;100.00;101881.56;5032956;28;20049;-45
2024/01/28 01:05:24;;;;;;;7.75;2.95;;;;;;;4.21;100.00;101874.53;5033055;28;20152;-43
2024/01/28 01:07:52;;;;;;;8.70;2.80;;;;;;;4.27;100.00;101878.91;5033143;28;20396;-43
2024/01/28 01:10:25;;;;;;;11.70;3.38;;;;;;;4.34;100.00;101877.94;5032766;28;20425;-42
2024/01/28 01:12:53;;;;;;;9.02;2.92;;;;;;;4.32;100.00;101877.09;5032840;28;20487;-44
2024/01/28 01:15:22;;;;;;;10.00;3.22;;;;;;;4.37;100.00;101880.59;5032758;28;20442;-42
2024/01/28 01:17:50;;;;;;;11.60;3.33;;;;;;;4.23;100.00;101880.69;5032762;28;20049;-42
2024/01/28 01:20:20;;;;;;;10.85;3.03;;;;;;;4.20;100.00;101882.50;5033009;28;20406;-43
2024/01/28 01:22:53;;;;;;;8.98;2.97;;;;;;;4.29;100.00;101882.41;5033737;28;20049;-44
2024/01/28 01:25:22;;;;;;;8.02;2.75;;;;;;;4.29;99.94;101888.56;5035696;28;20099;-43
2024/01/28 01:27:52;;;;;;;11.95;3.22;;;;;;;4.25;100.00;101888.63;5032787;28;20049;-43
2024/01/28 01:30:20;;;;;;;10.48;3.00;;;;;;;4.16;100.00;101891.34;5032459;28;20046;-43
2024/01/28 01:32:52;;;;;;;10.88;2.95;;;;;;;4.07;100.00;101894.03;5032712;28;20136;-42
2024/01/28 01:35:22;;;;;;;7.78;3.05;;;;;;;4.11;100.00;101885.19;5032668;28;20453;-42
2024/01/28 01:37:50;;;;;;;11.05;3.55;;;;;;;4.21;100.00;101895.69;5032613;28;20061;-43
2024/01/28 01:40:18;;;;;;;12.27;3.33;;;;;;;4.19;100.00;101897.47;5032384;28;20052;-42
2024/01/28 01:42:47;;;;;;;9.07;2.70;;;;;;;4.14;100.00;101893.09;5032161;28;20135;-42
2024/01/28 01:45:15;;;;;;;8.70;3.13;;;;;;;4.11;100.00;101904.56;5032383;28;20052;-45
2024/01/28 01:47:45;;;;;;;8.98;2.90;;;;;;;4.27;100.00;101906.19;5032753;28;20048;-43
2024/01/28 01:50:13;;;;;;;11.55;3.25;;;;;;;4.07;100.00;101901.97;5032284;28;20046;-42
2024/01/28 01:52:46;;;;;;;12.20;3.47;;;;;;;4.14;100.00;101901.88;5032290;28;20045;-43
2024/01/28 01:55:15;;;;;;;10.80;3.37;;;;;;;3.99;100.00;101899.38;5032148;28;20045;-42
2024/01/28 01:57:43;;;;;;;9.50;2.85;;;;;;;4.16;100.00;101912.47;5032552;28;20065;-43
2024/01/28 02:00:14;;;;;;;9.45;3.00;;;;;;;4.05;100.00;101916.91;5032521;28;20050;-43
2024/01/28 02:02:45;;;;;;;8.27;2.85;;;;;;;4.17;100.00;101907.16;5031706;28;20045;-42
2024/01/28 02:05:14;;;;;;;12.13;2.80;;;;;;;4.03;99.25;101901.97;5032049;28;20143;-43
2024/01/28 02:07:45;;;;;;;11.00;2.90;;;;;;;4.10;98.54;101905.44;5031762;28;20045;-43
2024/01/28 02:10:14;;;;;;;8.43;3.00;;;;;;;4.07;98.59;101892.28;5031531;28;20143;-42
2024/01/28 02:12:43;;;;;;;6.32;2.50;;;;;;;4.07;97.83;101905.47;5032066;28;20056;-44
2024/01/28 02:15:12;;;;;;;7.53;2.75;;;;;;;4.14;98.48;101909.81;5031933;28;20057;-45
2024/01/28 02:17:41;;;;;;;10.23;2.70;;;;;;;4.11;97.14;101898.41;5032068;28;20061;-43
2024/01/28 02:20:10;;;;;;;7.65;2.67;;;;;;;4.12;96.88;101900.16;5032111;28;20052;-43
2024/01/28 02:22:39;;;;;;;8.20;2.80;;;;;;;4.18;95.41;101914.19;5032271;28;20053;-43
2024/01/28 02:25:09;;;;;;;6.97;2.65;;;;;;;4.19;94.79;101913.31;5031822;28;20426;-43
2024/01/28 02:27:40;;;;;;;10.00;2.92;;;;;;;4.28;93.97;101915.88;5031784;28;20049;-43
2024/01/28 02:30:10;;;;;;;6.82;3.10;;;;;;;4.22;93.40;101920.31;5031576;28;20140;-42
2024/01/28 02:32:46;;;;;;;7.60;2.70;;;;;;;4.16;93.30;101923.91;5031432;28;20057;-44
2024/01/28 02:35:15;;;;;;;7.93;3.25;;;;;;;4.16;93.34;101933.59;5031251;28;20051;-43
2024/01/28 02:37:43;;;;;;;12.07;3.78;;;;;;;4.27;92.36;101929.97;5031374;28;20053;-42
2024/01/28 02:40:13;;;;;;;9.90;2.95;;;;;;;4.31;91.32;101936.09;5031231;28;20048;-43
2024/01/28 02:42:42;;;;;;;9.50;2.83;;;;;;;4.33;91.33;101936.97;5030865;28;20049;-44
2024/01/28 02:45:10;;;;;;;9.82;2.90;;;;;;;4.31;91.09;101944.03;5031238;28;20406;-44
2024/01/28 02:47:38;;;;;;;8.15;2.92;;;;;;;4.26;91.59;101948.50;5031087;28;20045;-44
2024/01/28 02:50:07;;;;;;;11.32;2.92;;;;;;;4.22;91.58;101949.38;5013929;28;20056;-44
2024/01/28 02:52:36;;;;;;;9.38;2.88;;;;;;;4.15;91.46;101943.28;5031530;28;20056;-44
2024/01/28 02:55:05;;;;;;;7.38;2.75;;;;;;;4.24;90.40;101942.31;5031338;28;20063;-43
2024/01/28 02:57:35;;;;;;;9.45;2.90;;;;;;;4.27;91.02;101934.38;5032859;28;20045;-44
2024/01/28 03:00:06;;;;;;;6.97;2.83;;;;;;;4.27;90.55;101937.91;5033699;28;20204;-45
2024/01/28 03:02:34;;;;;;;8.38;2.55;;;;;;;4.31;91.29;101944.91;5034690;28;20045;-45
2024/01/28 03:05:03;;;;;;;8.65;2.83;;;;;;;4.26;90.92;101935.28;5032336;28;20128;-43
2024/01/28 03:07:31;;;;;;;9.15;2.75;;;;;;;4.25;91.19;101950.25;5032817;28;20064;-43
2024/01/28 03:10:00;;;;;;;9.57;2.90;;;;;;;4.24;91.47;101950.22;5030855;28;20479;-43
2024/01/28 03:12:29;;;;;;;8.77;3.10;;;;;;;4.14;92.12;101949.41;5030801;28;20045;-45
2024/01/28 03:14:58;;;;;;;7.38;2.75;;;;;;;4.19;91.87;101955.56;5029571;28;20053;-41
2024/01/28 03:17:27;;;;;;;8.57;3.63;;;;;;;4.16;91.78;101955.59;5030641;28;20049;-43
2024/01/28 03:19:55;;;;;;;9.98;2.85;;;;;;;4.20;92.08;101945.88;5031449;28;20049;-44
2024/01/28 03:22:23;;;;;;;8.90;3.05;;;;;;;4.09;92.51;101940.66;5038760;28;20041;-43
2024/01/28 03:24:52;;;;;;;7.75;2.88;;;;;;;4.14;92.29;101944.13;5033298;28;20050;-42
2024/01/28 03:27:20;;;;;;;8.85;3.03;;;;;;;4.15;92.21;101942.38;5030540;28;20045;-44
2024/01/28 03:29:49;;;;;;;8.38;2.90;;;;;;;4.16;92.08;101944.16;5030694;28;20053;-44
2024/01/28 03:32:18;;;;;;;10.80;2.83;;;;;;;4.15;91.98;101935.34;5030610;28;20054;-43
2024/01/28 03:34:47;;;;;;;10.95;3.15;;;;;;;4.10;92.19;101945.06;5030498;28;20050;-44
2024/01/28 03:37:15;;;;;;;11.43;2.88;;;;;;;4.15;92.10;101950.28;5030555;28;20049;-45
2024/01/28 03:39:44;;;;;;;9.02;3.70;;;;;;;4.08;92.56;101956.53;5030628;28;20111;-43
2024/01/28 03:42:12;;;;;;;7.60;3.03;;;;;;;4.06;93.04;101953.03;5030362;28;20100;-43
2024/01/28 03:44:41;;;;;;;9.75;3.15;;;;;;;4.12;93.24;101959.13;5030121;28;20053;-43
2024/01/28 03:47:09;;;;;;;8.95;3.20;;;;;;;4.16;93.15;101962.66;5030659;28;20486;-42
2024/01/28 03:49:39;;;;;;;9.40;3.53;;;;;;;4.28;92.16;101973.13;5030449;28;20045;-43
2024/01/28 03:52:07;;;;;;;12.23;4.20;;;;;;;4.21;92.79;101980.19;5030454;28;20053;-43
2024/01/28 03:54:35;;;;;;;11.73;3.20;;;;;;;4.12;92.53;101958.25;5029612;28;20076;-43
2024/01/28 03:57:04;;;;;;;9.10;2.97;;;;;;;4.21;92.62;101966.13;5030783;28;20049;-42
2024/01/28 03:59:33;;;;;;;10.32;3.13;;;;;;;4.25;91.90;101966.09;5030639;28;20525;-44
2024/01/28 04:02:01;;;;;;;7.60;3.30;;;;;;;4.35;92.73;101973.97;5030578;28;20427;-44
2024/01/28 04:04:30;;;;;;;13.95;3.22;;;;;;;4.34;92.33;101972.19;5030210;28;20081;-43
2024/01/28 04:07:00;;;;;;;9.30;2.70;;;;;;;4.19;92.79;101970.53;5030439;28;20103;-44
2024/01/28 04:09:28;;;;;;;9.65;3.25;;;;;;;4.16;93.53;101968.81;5030445;28;20053;-44
2024/01/28 04:11:57;;;;;;;9.63;3.25;;;;;;;4.25;93.74;101967.88;5030941;28;20059;-43
2024/01/28 04:14:25;;;;;;;10.20;3.67;;;;;;;4.32;93.11;101966.91;5031207;28;20414;-43
2024/01/28 04:16:53;;;;;;;7.30;3.00;;;;;;;4.12;91.65;101963.53;5031178;28;20460;-44
2024/01/28 04:19:22;;;;;;;10.90;3.35;;;;;;;4.11;92.30;101964.41;5030278;28;20046;-43
2024/01/28 04:21:50;;;;;;;10.43;2.92;;;;;;;4.03;92.07;101969.75;5030238;28;20053;-44
2024/01/28 04:24:20;;;;;;;8.20;2.72;;;;;;;3.97;92.52;101975.97;5030436;28;20501;-43
2024/01/28 04:26:49;;;;;;;9.35;3.35;;;;;;;3.92;93.31;101976.84;5034032;28;20053;-43
2024/01/28 04:29:17;;;;;;;10.80;2.78;;;;;;;3.92;94.27;101972.44;5033909;28;20045;-42
2024/01/28 04:31:45;;;;;;;11.68;3.70;;;;;;;3.95;94.22;101976.81;5033904;28;20049;-43
2024/01/28 04:34:14;;;;;;;10.63;3.00;;;;;;;3.86;95.02;101980.44;5033796;28;20111;-43
2024/01/28 04:36:42;;;;;;;9.98;2.95;;;;;;;3.87;96.09;101984.81;5033785;28;20041;-43
2024/01/28 04:39:10;;;;;;;10.88;3.05;;;;;;;3.80;96.06;101979.56;5033629;28;20052;-44
2024/01/28 04:41:40;;;;;;;9.52;3.13;;;;;;;3.92;96.89;101983.00;5033385;28;20061;-42
2024/01/28 04:44:09;;;;;;;8.38;3.17;;;;;;;3.96;95.95;101990.06;5033032;28;20140;-43
2024/01/28 04:46:37;;;;;;;11.55;3.63;;;;;;;3.92;97.04;101992.69;5033393;28;20046;-46
2024/01/28 04:49:05;;;;;;;13.75;3.45;;;;;;;3.97;97.31;101991.81;5033120;28;20398;-46
2024/01/28 04:51:34;;;;;;;11.45;3.13;;;;;;;3.96;97.37;101991.81;5033623;28;20128;-43
2024/01/28 04:54:03;;;;;;;12.70;3.58;;;;;;;3.96;97.93;101997.97;5033440;28;20401;-43
2024/01/28 04:56:31;;;;;;;11.68;4.30;;;;;;;3.81;98.74;101994.50;5033319;28;20099;-42
2024/01/28 04:59:02;;;;;;;11.02;3.80;;;;;;;3.75;100.00;102000.69;5033333;28;20398;-44
2024/01/28 05:01:32;;;;;;;9.88;3.50;;;;;;;3.75;100.00;102000.69;5033278;28;20562;-43
2024/01/28 05:04:01;;;;;;;12.07;3.83;;;;;;;3.71;100.00;102004.25;5033190;28;20085;-43
2024/01/28 05:06:34;;;;;;;9.57;3.60;;;;;;;3.59;100.00;102007.81;5033578;28;20071;-43
2024/01/28 05:09:03;;;;;;;;;;;;;;;3.55;100.00;102013.09;5034107;28;20132;-42
2024/01/28 05:11:32;;;;;;;9.77;3.42;;;;;;;3.65;100.00;102014.81;5032722;28;19955;-43
2024/01/28 05:14:02;;;;;;;8.95;3.58;;;;;;;3.75;100.00;102027.09;5032183;28;20489;-43
2024/01/28 05:16:30;;;;;;;9.20;3.53;;;;;;;3.67;100.00;102023.63;5033044;28;20080;-44
2024/01/28 05:19:01;;;;;;;14.18;4.95;;;;;;;3.76;100.00;102028.84;5033003;28;20207;-42
2024/01/28 05:21:30;;;;;;;12.40;4.13;;;;;;;3.83;100.00;102030.56;5032747;28;20111;-43
2024/01/28 05:23:58;;;;;;;13.05;3.58;;;;;;;3.78;100.00;102032.38;5032539;28;20053;-43
2024/01/28 05:26:26;;;;;;;10.15;5.20;;;;;;;3.82;100.00;102022.66;5032629;28;20050;-42
2024/01/28 05:28:57;;;;;;;12.10;5.10;;;;;;;3.57;100.00;102027.13;5032369;28;20107;-43
2024/01/28 05:31:27;;;;;;;9.52;4.50;;;;;;;3.65;100.00;102028.88;5032640;28;20443;-42
2024/01/28 05:33:55;;;;;;;11.15;3.53;;;;;;;3.39;100.00;102028.09;5032457;28;20093;-43
2024/01/28 05:36:24;;;;;;;9.50;3.70;;;;;;;3.43;100.00;102037.75;5031372;28;20505;-42
2024/01/28 05:38:54;;;;;;;10.30;3.88;;;;;;;3.53;100.00;102041.25;5032290;28;20048;-44
2024/01/28 05:41:22;;;;;;;12.65;3.72;;;;;;;3.47;100.00;102041.25;5032325;28;20057;-42
2024/01/28 05:43:51;;;;;;;12.15;3.72;;;;;;;3.52;100.00;102047.41;5031950;28;20505;-42
2024/01/28 05:46:19;;;;;;;13.02;4.20;;;;;;;3.56;100.00;102052.66;5032149;28;20045;-43
2024/01/28 05:48:49;;;;;;;12.13;3.83;;;;;;;3.55;100.00;102036.81;5032228;28;20132;-41
2024/01/28 05:51:18;;;;;;;12.30;4.40;;;;;;;3.59;100.00;102043.88;5032293;28;20046;-42
2024/01/28 05:53:46;;;;;;;12.63;4.05;;;;;;;3.52;100.00;102044.75;5032066;28;20470;-44
2024/01/28 05:56:14;;;;;;;10.18;3.88;;;;;;;3.51;100.00;102061.47;5032153;28;20053;-44
2024/01/28 05:58:43;;;;;;;12.20;3.97;;;;;;;3.51;100.00;102053.56;5032296;28;20045;-44
2024/01/28 06:01:12;;;;;;;11.02;4.35;;;;;;;3.43;100.00;102067.63;5032359;28;20046;-44
2024/01/28 06:03:41;;;;;;;10.63;3.80;;;;;;;3.54;100.00;102075.53;5031835;28;20513;-43
2024/01/28 06:06:11;;;;;;;9.57;3.55;;;;;;;3.49;100.00;102069.41;5031904;28;20045;-43
2024/01/28 06:08:41;;;;;;;13.40;3.97;;;;;;;3.47;100.00;102072.91;5031919;28;20073;-42
2024/01/28 06:11:10;;;;;;;12.52;3.97;;;;;;;3.42;100.00;102080.84;5032141;28;20552;-44
2024/01/28 06:13:38;;;;;;;9.50;3.90;;;;;;;3.41;100.00;102079.97;5031699;28;20072;-43
2024/01/28 06:16:07;;;;;;;11.43;4.35;;;;;;;3.33;100.00;102086.13;5031685;28;20049;-45
2024/01/28 06:18:43;;;;;;;12.30;3.20;;;;;;;3.27;100.00;102087.00;5031674;28;20042;-43
2024/01/28 06:21:13;;;;;;;14.93;4.18;;;;;;;3.24;100.00;102081.75;5031209;28;20045;-43
2024/01/28 06:23:44;;;;;;;8.23;3.92;;;;;;;3.31;100.00;102088.78;5031580;28;20115;-44
2024/01/28 06:26:12;;;;;;;9.52;3.88;;;;;;;3.31;100.00;102087.91;5031437;28;20080;-44
2024/01/28 06:28:40;;;;;;;8.32;3.90;;;;;;;3.38;100.00;102084.38;5031634;28;20611;-45
2024/01/28 06:31:09;;;;;;;16.33;4.72;;;;;;;3.44;100.00;102090.50;5032770;28;20045;-43
2024/01/28 06:33:37;;;;;;;15.13;3.85;;;;;;;3.53;100.00;102086.09;5031837;28;20049;-43
2024/01/28 06:36:07;;;;;;;9.40;3.85;;;;;;;3.56;100.00;102078.16;5031459;28;20045;-42
2024/01/28 06:38:36;;;;;;;13.60;3.88;;;;;;;3.57;100.00;102090.47;5031254;28;20490;-42
2024/01/28 06:41:05;;;;;;;10.48;4.18;;;;;;;3.67;100.00;102084.31;5031249;28;20068;-43
2024/01/28 06:43:33;;;;;;;9.05;3.67;;;;;;;3.62;100.00;102100.16;5031764;28;20076;-44
2024/01/28 06:46:02;;;;;;;12.93;4.00;;;;;;;3.61;100.00;102092.25;5030720;28;20057;-43
2024/01/28 06:48:31;;;;;;;10.10;3.35;;;;;;;3.60;100.00;102101.03;5030861;28;20482;-44
2024/01/28 06:51:00;;;;;;;10.70;3.95;;;;;;;3.63;100.00;102093.97;5031411;28;20049;-44
2024/01/28 06:53:28;;;;;;;12.38;4.82;;;;;;;3.73;100.00;102105.41;5031052;28;20090;-43
2024/01/28 06:55:58;;;;;;;15.80;4.78;;;;;;;3.82;100.00;102110.66;5031001;28;20119;-41
2024/01/28 06:58:27;;;;;;;9.77;3.90;;;;;;;3.77;100.00;102104.53;5030871;28;20072;-42
2024/01/28 07:00:55;;;;;;;9.57;4.22;;;;;;;3.65;100.00;102109.81;5030767;28;20053;-43
2024/01/28 07:03:23;;;;;;;9.82;4.18;;;;;;;3.79;100.00;102108.03;5031082;28;20508;-47
2024/01/28 07:05:52;;;;;;;13.45;4.20;;;;;;;3.69;100.00;102111.59;5030654;28;20399;-43
2024/01/28 07:08:20;;;;;;;9.55;3.92;;;;;;;3.79;100.00;102112.44;5030883;28;20119;-44
2024/01/28 07:10:48;;;;;;;10.63;4.50;;;;;;;3.78;100.00;102108.03;5030544;28;20079;-44
2024/01/28 07:13:18;;;;;;;13.25;4.28;;;;;;;3.99;100.00;102121.16;5030827;28;20049;-43
2024/01/28 07:15:46;;;;;;;9.93;4.05;;;;;;;3.94;100.00;102107.97;5030653;28;20509;-43
2024/01/28 07:18:14;;;;;;;9.07;3.63;;;;;;;4.14;100.00;102109.66;5030889;28;20049;-43
2024/01/28 07:20:43;;;;;;;12.90;4.03;;;;;;;4.16;100.00;102113.19;5030939;28;20091;-44
2024/01/28 07:23:11;;;;;;;9.40;3.72;;;;;;;3.96;100.00;102124.72;5031037;28;20060;-43
2024/01/28 07:25:40;;;;;;;15.55;4.55;;;;;;;4.23;100.00;102115.78;5030753;28;20052;-46
2024/01/28 07:28:09;;;;;;;16.75;4.60;;;;;;;4.35;100.00;102117.50;5030929;28;20049;-47
2024/01/28 07:30:38;;;;;;;10.52;4.03;;;;;;;4.36;100.00;102128.94;5030932;28;20057;-42
2024/01/28 07:33:08;;;;;;;9.38;3.90;;;;;;;4.43;100.00;102135.94;5030698;28;20061;-42
2024/01/28 07:35:37;;;;;;;9.30;4.20;;;;;;;4.70;100.00;102127.88;5030542;28;20056;-49
2024/01/28 07:38:05;;;;;;;13.63;4.55;;;;;;;4.49;100.00;102133.28;5030434;28;20049;-43
2024/01/28 07:40:33;;;;;;;12.35;4.38;;;;;;;4.64;100.00;102130.56;5030735;28;20091;-42
2024/01/28 07:43:02;;;;;;;10.68;4.63;;;;;;;4.57;100.00;102132.34;5030298;28;20092;-42
2024/01/28 07:45:30;;;;;;;10.55;4.57;;;;;;;4.65;100.00;102129.66;5030200;28;20060;-43
2024/01/28 07:48:00;;;;;;;14.35;4.45;;;;;;;4.37;100.00;102128.94;5036083;28;20546;-43
2024/01/28 07:50:28;;;;;;;11.02;4.65;;;;;;;4.37;100.00;102136.88;5050566;28;20080;-42
2024/01/28 07:52:56;;;;;;;11.48;4.03;;;;;;;4.55;100.00;102128.84;5050538;28;20045;-45
2024/01/28 07:55:24;;;;;;;9.45;4.43;;;;;;;4.51;100.00;102137.66;5050378;28;20144;-43
2024/01/28 07:57:53;;;;;;;9.40;3.85;;;;;;;4.56;100.00;102140.28;5050199;28;20059;-42
2024/01/28 08:00:22;;;;;;;11.88;4.50;;;;;;;4.69;100.00;102135.81;5051673;28;20094;-43
2024/01/28 08:02:50;;;;;;;14.02;4.90;;;;;;;4.67;100.00;102143.75;5054437;28;20047;-42
2024/01/28 08:05:23;;;;;;;11.90;4.28;;;;;;;4.92;100.00;102151.50;5054123;28;20052;-45
2024/01/28 08:07:54;;;;;;;13.85;5.47;;;;;;;5.12;100.00;102153.16;5054398;28;20049;-42
2024/01/28 08:10:24;;;;;;;11.10;4.35;;;;;;;5.16;100.00;102160.16;5054539;28;20072;-43
2024/01/28 08:12:52;;;;;;;15.23;4.68;;;;;;;5.09;100.00;102163.75;5053981;28;20439;-42
2024/01/28 08:15:20;;;;;;;12.95;4.32;;;;;;;5.27;100.00;102164.50;5053871;28;20091;-45
2024/01/28 08:17:50;;;;;;;9.52;4.28;;;;;;;5.21;100.00;102167.19;5053838;28;20417;-42
2024/01/28 08:20:19;;;;;;;10.95;4.55;;;;;;;5.19;100.00;102164.53;5053887;28;20561;-42
2024/01/28 08:22:50;;;;;;;10.02;4.30;;;;;;;5.14;100.00;102171.66;5054071;28;20049;-44
2024/01/28 08:25:18;;;;;;;13.10;4.63;;;;;;;5.11;100.00;102177.81;5053797;28;20045;-43
2024/01/28 08:27:47;;;;;;;10.27;4.65;;;;;;;5.17;100.00;102169.84;5053749;28;20110;-43
2024/01/28 08:30:17;;;;;;;12.48;4.60;;;;;;;5.12;100.00;102158.44;5055506;28;20053;-43
2024/01/28 08:32:46;;;;;;;8.30;4.57;;;;;;;5.38;100.00;102162.63;5054785;28;20363;-44
2024/01/28 08:35:14;;;;;;;10.18;4.55;;;;;;;5.44;100.00;102158.19;5053834;28;20053;-45
2024/01/28 08:37:42;;;;;;;10.60;4.22;;;;;;;5.66;100.00;102169.44;5053550;28;20091;-43
2024/01/28 08:40:12;;;;;;;11.93;4.10;;;;;;;5.69;100.00;102172.09;5053442;28;20099;-44
2024/01/28 08:42:40;;;;;;;8.82;4.18;;;;;;;5.64;100.00;102171.22;5053019;28;20080;-45
2024/01/28 08:45:10;;;;;;;8.80;4.07;;;;;;;5.74;100.00;102183.50;5053167;28;20098;-45
2024/01/28 08:47:38;;;;;;;12.30;4.10;;;;;;;5.93;100.00;102183.34;5053221;28;20045;-44
2024/01/28 08:50:08;;;;;;;9.55;4.05;;;;;;;6.21;100.00;102179.50;5053497;28;20052;-43
2024/01/28 08:52:36;;;;;;;11.93;4.32;;;;;;;6.17;100.00;102183.06;5053536;28;20041;-42
2024/01/28 08:55:05;;;;;;;17.20;5.15;;;;;;;6.17;100.00;102183.06;5053234;28;20064;-45
2024/01/28 08:57:35;;;;;;;10.05;4.22;;;;;;;6.39;100.00;102191.66;5053432;28;20060;-44
2024/01/28 09:00:05;;;;;;;10.27;4.53;;;;;;;6.51;100.00;102188.84;5053262;28;20045;-43
2024/01/28 09:02:35;;;;;;;13.68;4.80;;;;;;;6.46;100.00;102192.44;5053559;28;20045;-46
2024/01/28 09:05:05;;;;;;;10.77;4.82;;;;;;;6.43;100.00;102189.84;5053295;28;20577;-44
2024/01/28 09:07:34;;;;;;;13.35;5.95;;;;;;;6.52;100.00;102202.97;5053046;28;20049;-43
2024/01/28 09:10:03;;;;;;;11.00;4.60;;;;;;;6.57;99.49;102203.81;5053576;28;20091;-44
2024/01/28 09:12:31;;;;;;;13.18;4.18;;;;;;;6.51;99.91;102203.88;5052580;28;20102;-42
2024/01/28 09:15:01;;;;;;;10.15;4.70;;;;;;;6.57;98.97;102207.34;5053138;28;20044;-44
2024/01/28 09:17:29;;;;;;;8.05;4.28;;;;;;;6.68;98.38;102209.84;5053157;28;20055;-43
2024/01/28 09:19:58;;;;;;;10.45;4.72;;;;;;;6.68;97.46;102209.84;5053051;28;20080;-45
2024/01/28 09:22:26;;;;;;;12.13;4.68;;;;;;;6.94;98.97;102209.47;5052945;28;20095;-43
2024/01/28 09:24:55;;;;;;;12.50;4.88;;;;;;;6.93;96.27;102213.03;5052591;28;20041;-45
2024/01/28 09:27:24;;;;;;;14.25;4.57;;;;;;;6.88;95.84;102217.53;5052615;28;20045;-43
2024/01/28 09:29:52;;;;;;;11.73;4.40;;;;;;;7.16;94.39;102212.72;5052897;28;20044;-44
2024/01/28 09:32:24;;;;;;;10.65;3.97;;;;;;;7.21;93.71;102218.81;5052753;28;20049;-45
2024/01/28 09:34:53;;;;;;;11.63;4.35;;;;;;;7.06;93.29;102227.03;5052521;28;20486;-45
2024/01/28 09:37:21;;;;;;;11.20;4.30;;;;;;;7.16;93.33;102223.34;5052551;28;20051;-45
2024/01/28 09:39:49;;;;;;;10.70;4.60;;;;;;;7.29;92.56;102232.00;5052331;28;20049;-45
2024/01/28 09:42:24;;;;;;;10.93;3.78;;;;;;;7.05;92.72;102236.78;5052662;28;20235;-44
2024/01/28 09:44:52;;;;;;;11.30;4.57;;;;;;;6.99;93.24;102238.63;5013076;28;20133;-44
2024/01/28 09:47:22;;;;;;;9.15;4.00;;;;;;;7.12;91.20;102232.22;5012745;28;20451;-43
2024/01/28 09:49:52;;;;;;;9.85;3.83;;;;;;;7.14;91.31;102235.72;5012668;28;20057;-44
2024/01/28 09:52:20;;;;;;;8.70;3.50;;;;;;;7.02;90.36;102242.09;5012467;28;20054;-43
2024/01/28 09:54:49;;;;;;;10.30;3.88;;;;;;;7.06;90.37;102243.81;5003828;28;20085;-44
2024/01/28 09:57:17;;;;;;;19.92;11.25;;;;;;;7.30;90.65;102247.88;4993234;28;20134;-43
2024/01/28 09:59:46;;;;;;;14.55;4.38;;;;;;;7.03;89.30;102245.63;4992898;28;20053;-42
2024/01/28 10:02:15;;;;;;;11.55;3.60;;;;;;;7.03;89.66;102238.53;4991703;28;20504;-44
2024/01/28 10:04:46;;;;;;;7.25;3.55;;;;;;;6.95;93.45;102239.53;4992729;28;20046;-44
2024/01/28 10:07:15;;;;;;;9.52;3.90;;;;;;;6.89;94.15;102240.53;4992909;28;20050;-44
2024/01/28 10:09:45;;;;;;;8.55;3.90;;;;;;;6.96;93.69;102241.31;4992735;28;20098;-44
2024/01/28 10:12:13;;;;;;;11.25;4.00;;;;;;;7.25;90.74;102238.25;4992693;28;20050;-43
2024/01/28 10:14:50;;;;;;;9.98;4.28;;;;;;;7.56;90.49;102228.03;4992775;28;20047;-44
2024/01/28 10:17:21;;;;;;;8.05;3.63;;;;;;;7.79;88.57;102228.50;4992479;28;20088;-44
2024/01/28 10:19:50;;;;;;;12.50;4.30;;;;;;;7.88;87.51;102224.81;4992808;28;20050;-45
2024/01/28 10:22:19;;;;;;;11.27;4.10;;;;;;;7.86;86.74;102223.97;4994929;28;20046;-43
2024/01/28 10:24:47;;;;;;;9.02;3.55;;;;;;;7.60;87.21;102227.94;5002708;28;20121;-43
2024/01/28 10:27:15;;;;;;;17.00;4.63;;;;;;;7.84;86.92;102226.66;5008691;28;20528;-45
2024/01/28 10:29:45;;;;;;;10.05;4.03;;;;;;;7.92;87.18;102227.41;5012069;28;20120;-43
2024/01/28 10:32:13;;;;;;;12.70;4.68;;;;;;;8.15;86.85;102220.78;5002181;28;20069;-49
2024/01/28 10:34:41;;;;;;;16.27;4.78;;;;;;;8.11;85.80;102219.09;4992232;28;20133;-42
2024/01/28 10:37:12;;;;;;;11.02;4.05;;;;;;;8.01;85.76;102211.31;4998981;28;20385;-46
2024/01/28 10:39:44;;;;;;;12.65;4.13;;;;;;;8.09;85.95;102212.91;5011730;28;20046;-44
2024/01/28 10:42:16;;;;;;;10.45;4.68;;;;;;;8.25;86.39;102204.63;5011777;28;20098;-45
2024/01/28 10:44:47;;;;;;;11.88;4.65;;;;;;;8.39;84.95;102201.72;5049488;28;20491;-44
2024/01/28 10:47:17;;;;;;;14.30;4.07;;;;;;;8.49;84.40;102205.06;5051391;28;20091;-44
2024/01/28 10:49:51;;;;;;;10.10;4.10;;;;;;;8.54;84.20;102201.41;5051321;28;20048;-47
2024/01/28 10:52:22;;;;;;;12.18;4.28;;;;;;;8.23;86.40;102197.59;5051234;28;20049;-45
2024/01/28 10:54:51;;;;;;;17.05;4.60;;;;;;;8.02;87.81;102201.53;5051240;28;20049;-44
2024/01/28 10:57:22;;;;;;;10.40;4.30;;;;;;;7.61;89.80;102204.91;5051167;28;20055;-44
2024/01/28 10:59:52;;;;;;;12.35;3.83;;;;;;;7.67;86.13;102200.38;5051301;28;20045;-43
2024/01/28 11:02:21;;;;;;;11.63;4.13;;;;;;;7.94;84.65;102196.38;5038985;28;20041;-43
2024/01/28 11:04:50;;;;;;;10.70;4.07;;;;;;;7.99;82.57;102196.25;5031356;28;20152;-43
2024/01/28 11:07:19;;;;;;;12.05;4.00;;;;;;;7.90;84.70;102193.78;5031024;28;20049;-43
2024/01/28 11:09:49;;;;;;;9.23;4.10;;;;;;;7.74;84.68;102195.84;5031121;28;20042;-42
2024/01/28 11:12:18;;;;;;;16.20;6.70;;;;;;;7.72;86.48;102192.31;5038829;28;20171;-43
2024/01/28 11:14:47;;;;;;;30.10;12.20;;;;;;;7.81;87.18;102191.28;5041623;28;20052;-43
2024/01/28 11:17:16;;;;;;;9.57;4.95;;;;;;;7.92;84.45;102198.19;5050091;28;20490;-43
2024/01/28 11:19:45;;;;;;;20.10;4.38;;;;;;;7.91;83.04;102199.09;5047767;28;20441;-46
2024/01/28 11:22:15;;;;;;;8.50;4.43;;;;;;;7.90;82.46;102192.00;5050730;28;20379;-42
2024/01/28 11:24:53;;;;;;;9.68;3.92;;;;;;;8.01;82.41;102195.34;5050916;28;20395;-44
2024/01/28 11:27:21;;;;;;;12.57;4.63;;;;;;;7.97;82.63;102193.63;5050834;28;20052;-44
2024/01/28 11:29:57;;;;;;;10.63;4.22;;;;;;;8.09;81.41;102183.69;5050968;28;20132;-42
2024/01/28 11:32:33;;;;;;;22.25;5.38;;;;;;;7.98;81.18;102190.06;5050935;28;20414;-47